Time;durP1;ratioP1;P1;durP2;ratioP2;P2;SDS_P1;SDS_P2;PMS_P1;PMS_P2;Temp;Humidity;BMP_temperature;BMP_pressure;BME280_temperature;BME280_humidity;BME280_pressure;Samples;Min_cycle;Max_cycle;Signal;HPM_P1;HPM_P2
2021/06/20 13:01:35;;;;;;;29.63;7.72;;;30.90;47.00;;;;;;6287868;22;20023;-85
2021/06/20 13:04:25;;;;;;;30.42;7.43;;;31.10;47.10;;;;;;6279401;22;20039;-85
2021/06/20 13:06:52;;;;;;;30.38;6.93;;;31.00;46.40;;;;;;6281732;22;20011;-85
2021/06/20 13:09:41;;;;;;;36.97;7.55;;;31.00;46.40;;;;;;6296395;22;20037;-86
2021/06/20 13:12:07;;;;;;;41.45;8.70;;;31.00;46.60;;;;;;6299052;22;20010;-84
2021/06/20 13:14:36;;;;;;;31.90;7.00;;;31.00;46.50;;;;;;6289091;22;20003;-85
2021/06/20 13:17:09;;;;;;;40.38;9.32;;;31.10;46.40;;;;;;6280424;22;20003;-85
2021/06/20 13:19:39;;;;;;;32.38;7.65;;;31.10;46.50;;;;;;6280927;22;20372;-86
2021/06/20 13:22:07;;;;;;;28.55;6.95;;;31.00;46.40;;;;;;6280773;22;20003;-87
2021/06/20 13:24:33;;;;;;;30.63;7.43;;;31.00;46.40;;;;;;6280578;22;20286;-87
2021/06/20 13:26:59;;;;;;;32.45;8.15;;;31.00;46.40;;;;;;6280921;22;20078;-87
2021/06/20 13:29:25;;;;;;;31.20;8.48;;;31.00;46.40;;;;;;6279823;22;20341;-87
2021/06/20 13:31:50;;;;;;;38.25;9.00;;;31.00;46.10;;;;;;6279730;22;20400;-87
2021/06/20 13:34:16;;;;;;;30.55;7.82;;;30.80;45.80;;;;;;6279638;22;20003;-86
2021/06/20 13:36:43;;;;;;;37.25;7.93;;;30.80;45.70;;;;;;6279574;22;20057;-87
2021/06/20 13:39:09;;;;;;;37.53;7.63;;;30.80;45.80;;;;;;6278821;22;20003;-86
2021/06/20 13:41:39;;;;;;;28.58;8.00;;;30.80;46.10;;;;;;6305986;22;20031;-86
2021/06/20 13:44:05;;;;;;;40.58;8.80;;;30.80;46.10;;;;;;6278848;22;20441;-86
2021/06/20 13:46:32;;;;;;;27.63;8.07;;;30.70;46.00;;;;;;6278610;22;20003;-86
2021/06/20 13:48:59;;;;;;;34.10;7.60;;;30.70;46.00;;;;;;6278682;22;20011;-86
2021/06/20 13:51:25;;;;;;;34.17;8.43;;;30.60;46.00;;;;;;6277907;22;20037;-86
2021/06/20 13:53:56;;;;;;;37.40;8.45;;;30.50;46.10;;;;;;6306461;22;19999;-87
2021/06/20 13:56:22;;;;;;;32.25;6.78;;;30.40;46.30;;;;;;6305076;22;20007;-86
2021/06/20 13:58:48;;;;;;;36.75;7.53;;;30.40;46.40;;;;;;6278325;22;20003;-86
2021/06/20 14:01:16;;;;;;;34.95;8.63;;;30.40;46.50;;;;;;6241916;22;20669;-86
2021/06/20 14:03:49;;;;;;;32.22;6.88;;;30.40;46.70;;;;;;6242799;23;20083;-86
2021/06/20 14:06:17;;;;;;;32.47;7.80;;;30.30;46.90;;;;;;6241704;23;20008;-86
2021/06/20 14:08:43;;;;;;;35.38;8.38;;;30.30;46.90;;;;;;6241875;23;20465;-87
2021/06/20 14:11:09;;;;;;;35.15;7.95;;;30.20;46.80;;;;;;6241811;23;20012;-87
2021/06/20 14:13:35;;;;;;;36.50;7.90;;;30.10;46.90;;;;;;6242215;23;20004;-86
2021/06/20 14:16:01;;;;;;;21.65;6.90;;;30.10;46.90;;;;;;6242687;23;20516;-86
2021/06/20 14:18:26;;;;;;;26.70;7.10;;;30.20;47.00;;;;;;6242446;23;20000;-86
2021/06/20 14:20:52;;;;;;;36.55;8.77;;;30.20;46.80;;;;;;6243866;23;20445;-87
2021/06/20 14:23:21;;;;;;;32.95;8.65;;;30.20;46.90;;;;;;6243392;23;20073;-86
2021/06/20 14:25:47;;;;;;;19.85;6.70;;;30.20;47.20;;;;;;6243063;23;20008;-87
2021/06/20 14:28:16;;;;;;;27.88;7.43;;;30.30;47.20;;;;;;6243439;23;20381;-87
2021/06/20 14:30:44;;;;;;;32.20;8.48;;;30.30;47.40;;;;;;6243384;23;20008;-87
2021/06/20 14:33:10;;;;;;;26.30;7.35;;;30.30;47.80;;;;;;6242786;23;20008;-87
2021/06/20 14:35:42;;;;;;;23.70;7.25;;;30.50;47.90;;;;;;6246968;23;20474;-87
2021/06/20 14:38:08;;;;;;;38.78;9.55;;;30.50;47.60;;;;;;6243832;22;20035;-88
2021/06/20 14:40:36;;;;;;;33.10;6.72;;;30.70;47.40;;;;;;6249163;23;20442;-87
2021/06/20 14:43:04;;;;;;;25.15;6.85;;;30.80;47.40;;;;;;6242491;23;20012;-87
2021/06/20 14:45:30;;;;;;;29.65;7.88;;;30.90;47.20;;;;;;6242745;23;20008;-87
2021/06/20 14:47:56;;;;;;;31.10;7.88;;;30.90;47.10;;;;;;6243216;23;20438;-86
2021/06/20 14:50:23;;;;;;;31.10;8.00;;;30.80;47.10;;;;;;6245241;22;20004;-87
2021/06/20 14:52:49;;;;;;;30.50;8.07;;;30.60;47.30;;;;;;6251274;23;20430;-87
2021/06/20 14:55:14;;;;;;;32.85;7.72;;;30.70;47.50;;;;;;6243485;23;20008;-86
2021/06/20 14:57:40;;;;;;;28.13;7.75;;;30.70;47.40;;;;;;6246938;23;20001;-86
2021/06/20 15:00:07;;;;;;;30.67;8.40;;;30.80;47.30;;;;;;6242615;23;20023;-87
2021/06/20 15:02:33;;;;;;;30.75;8.00;;;30.70;47.10;;;;;;6248906;23;20390;-87
2021/06/20 15:05:01;;;;;;;32.92;8.05;;;30.70;47.10;;;;;;6243540;23;20015;-87
2021/06/20 15:07:27;;;;;;;40.33;7.88;;;30.60;47.10;;;;;;6242807;23;20341;-86
2021/06/20 15:09:53;;;;;;;29.73;7.55;;;30.60;47.20;;;;;;6242109;23;20031;-86
2021/06/20 15:12:19;;;;;;;28.05;7.88;;;30.50;47.30;;;;;;6243090;23;20426;-86
2021/06/20 15:14:44;;;;;;;29.17;7.82;;;30.60;47.40;;;;;;6241330;23;20004;-86
2021/06/20 15:17:11;;;;;;;30.40;7.13;;;30.70;47.50;;;;;;6243359;23;20039;-86
2021/06/20 15:19:37;;;;;;;36.28;8.18;;;30.70;47.40;;;;;;6242190;23;20011;-86
2021/06/20 15:22:03;;;;;;;25.00;7.15;;;30.70;47.40;;;;;;6242600;23;20005;-86
2021/06/20 15:24:28;;;;;;;28.55;8.43;;;30.60;47.50;;;;;;6242657;23;20027;-86
2021/06/20 15:26:54;;;;;;;31.60;8.82;;;30.60;47.70;;;;;;6242748;23;20008;-86
2021/06/20 15:29:22;;;;;;;23.08;6.75;;;30.50;47.90;;;;;;6242766;23;20032;-86
2021/06/20 15:31:48;;;;;;;36.55;8.55;;;30.50;47.90;;;;;;6244820;23;20005;-86
2021/06/20 15:34:41;;;;;;;37.83;9.18;;;30.40;47.90;;;;;;6245427;23;20119;-86
2021/06/20 15:37:12;;;;;;;27.90;7.68;;;30.40;47.90;;;;;;6245026;23;20012;-86
2021/06/20 15:39:38;;;;;;;34.23;8.23;;;30.40;48.70;;;;;;6244781;23;20031;-86
2021/06/20 15:42:07;;;;;;;34.80;8.50;;;30.30;48.50;;;;;;6244731;23;20038;-86
2021/06/20 15:44:34;;;;;;;32.50;10.82;;;30.30;48.60;;;;;;6247018;23;20022;-86
2021/06/20 15:47:01;;;;;;;50.30;24.08;;;30.20;48.80;;;;;;6244943;23;20430;-86
2021/06/20 15:49:27;;;;;;;37.92;11.85;;;30.20;49.00;;;;;;6244679;23;20008;-86
2021/06/20 15:51:53;;;;;;;38.40;9.25;;;30.20;49.20;;;;;;6245905;22;20008;-86
2021/06/20 15:54:30;;;;;;;36.33;11.00;;;30.20;49.10;;;;;;6247227;22;20004;-86
2021/06/20 15:56:56;;;;;;;36.78;9.63;;;30.30;49.10;;;;;;6244397;23;20087;-86
2021/06/20 15:59:21;;;;;;;36.83;10.82;;;30.30;48.80;;;;;;6245236;23;20430;-86
2021/06/20 16:01:47;;;;;;;47.35;18.48;;;30.40;48.70;;;;;;6244342;23;20012;-86
2021/06/20 16:04:13;;;;;;;56.22;26.77;;;30.30;48.40;;;;;;6245993;23;20050;-86
2021/06/20 16:06:39;;;;;;;58.67;28.58;;;30.30;48.60;;;;;;6244990;23;20008;-86
2021/06/20 16:09:05;;;;;;;39.55;16.38;;;30.20;48.80;;;;;;6243817;23;20007;-86
2021/06/20 16:11:32;;;;;;;36.88;16.30;;;30.10;49.00;;;;;;6245625;23;20058;-86
2021/06/20 16:13:58;;;;;;;35.47;13.77;;;30.10;49.20;;;;;;6244206;23;20004;-86
2021/06/20 16:16:25;;;;;;;33.92;9.55;;;30.00;49.90;;;;;;6243632;23;20015;-86
2021/06/20 16:18:51;;;;;;;49.80;20.40;;;30.00;49.60;;;;;;6243949;23;20000;-86
2021/06/20 16:21:18;;;;;;;46.08;16.90;;;30.00;49.80;;;;;;6242974;23;20091;-86
2021/06/20 16:23:44;;;;;;;49.70;20.73;;;30.00;50.10;;;;;;6244253;23;20054;-86
2021/06/20 16:26:12;;;;;;;36.88;14.30;;;30.00;50.20;;;;;;6243936;23;20015;-86
2021/06/20 16:28:41;;;;;;;52.58;23.08;;;30.00;50.40;;;;;;6245247;23;20024;-86
2021/06/20 16:31:09;;;;;;;34.95;10.95;;;30.00;50.40;;;;;;6244645;23;20427;-86
2021/06/20 16:33:35;;;;;;;43.78;15.25;;;30.00;50.60;;;;;;6244550;23;20115;-86
2021/06/20 16:36:01;;;;;;;38.70;10.98;;;29.90;50.70;;;;;;6245296;23;20032;-85
2021/06/20 16:38:27;;;;;;;35.67;9.68;;;29.90;50.80;;;;;;6245042;22;20391;-86
2021/06/20 16:40:53;;;;;;;28.13;8.63;;;29.80;50.90;;;;;;6242846;23;20015;-85
2021/06/20 16:43:19;;;;;;;28.63;7.93;;;29.80;50.90;;;;;;6243624;23;20334;-85
2021/06/20 16:45:44;;;;;;;33.55;8.60;;;29.70;51.10;;;;;;6243075;23;20087;-85
2021/06/20 16:48:11;;;;;;;26.42;7.63;;;29.70;51.10;;;;;;6245199;23;20082;-85
2021/06/20 16:50:37;;;;;;;31.55;8.02;;;29.70;51.50;;;;;;6243667;23;20000;-86
2021/06/20 16:53:03;;;;;;;29.35;8.57;;;29.60;51.30;;;;;;6245297;22;20338;-86
2021/06/20 16:55:29;;;;;;;29.70;8.95;;;29.60;51.20;;;;;;6243670;23;20004;-85
2021/06/20 16:57:55;;;;;;;27.55;7.88;;;29.60;51.40;;;;;;6244412;23;20008;-87
2021/06/20 17:00:20;;;;;;;27.10;7.05;;;29.50;51.40;;;;;;6248294;23;20042;-87
2021/06/20 17:02:47;;;;;;;31.90;8.40;;;29.50;51.60;;;;;;6244105;23;20064;-87
2021/06/20 17:05:14;;;;;;;35.63;8.88;;;29.50;51.80;;;;;;6245009;23;20015;-87
2021/06/20 17:07:40;;;;;;;25.45;7.85;;;29.40;51.90;;;;;;6244076;23;20008;-87
2021/06/20 17:10:09;;;;;;;37.50;8.43;;;29.40;52.10;;;;;;6243906;23;20442;-87
2021/06/20 17:12:45;;;;;;;34.97;8.77;;;29.40;52.30;;;;;;6246996;23;20067;-86
2021/06/20 17:15:13;;;;;;;29.70;8.38;;;29.40;52.60;;;;;;6244412;23;20007;-87
2021/06/20 17:17:39;;;;;;;34.28;9.15;;;29.30;52.70;;;;;;6243148;23;20010;-87
2021/06/20 17:20:07;;;;;;;27.98;8.48;;;29.30;52.70;;;;;;6242831;23;20035;-87
2021/06/20 17:22:33;;;;;;;25.10;8.13;;;29.20;52.90;;;;;;6243880;23;20691;-87
2021/06/20 17:24:59;;;;;;;32.35;8.20;;;29.20;53.10;;;;;;6244233;23;20490;-87
2021/06/20 17:27:25;;;;;;;27.45;8.13;;;29.20;53.20;;;;;;6244292;23;20457;-87
2021/06/20 17:29:51;;;;;;;39.00;9.25;;;29.10;53.40;;;;;;6245520;22;20079;-87
2021/06/20 17:32:18;;;;;;;43.33;17.08;;;29.10;53.60;;;;;;6218728;23;20055;-87
2021/06/20 17:34:45;;;;;;;35.13;11.27;;;29.10;53.80;;;;;;6243640;23;20027;-86
2021/06/20 17:37:12;;;;;;;27.80;10.52;;;29.00;54.10;;;;;;6243916;23;20007;-87
2021/06/20 17:39:39;;;;;;;31.73;9.70;;;28.90;54.40;;;;;;6243886;23;20087;-87
2021/06/20 17:42:06;;;;;;;25.95;8.52;;;28.90;54.50;;;;;;6242994;23;20000;-87
2021/06/20 17:44:36;;;;;;;31.30;9.32;;;28.80;54.30;;;;;;6268857;22;20000;-85
2021/06/20 17:47:03;;;;;;;35.67;10.57;;;28.80;53.90;;;;;;6245865;23;20004;-85
2021/06/20 17:49:29;;;;;;;27.67;9.25;;;28.80;53.80;;;;;;6242802;23;20012;-85
2021/06/20 17:51:55;;;;;;;32.38;8.38;;;28.80;53.70;;;;;;6242209;23;20005;-85
2021/06/20 17:54:22;;;;;;;36.13;8.85;;;28.80;53.70;;;;;;6244507;22;20072;-85
2021/06/20 17:56:48;;;;;;;29.10;8.35;;;28.70;53.70;;;;;;6243849;23;20784;-84
2021/06/20 17:59:14;;;;;;;29.00;8.15;;;28.60;53.90;;;;;;6242876;23;20316;-85
2021/06/20 18:01:41;;;;;;;24.92;8.57;;;28.50;54.10;;;;;;6243719;23;20075;-85
2021/06/20 18:04:08;;;;;;;36.30;8.98;;;28.50;54.10;;;;;;6242341;23;20008;-85
2021/06/20 18:06:35;;;;;;;27.08;8.27;;;28.50;54.30;;;;;;6243098;23;20000;-85
2021/06/20 18:09:04;;;;;;;29.10;7.50;;;28.40;54.20;;;;;;6217705;23;20030;-85
2021/06/20 18:11:30;;;;;;;24.50;7.97;;;28.40;54.10;;;;;;6242479;23;20015;-86
2021/06/20 18:13:56;;;;;;;36.83;9.65;;;28.40;54.80;;;;;;6242987;23;20043;-85
2021/06/20 18:16:22;;;;;;;30.50;8.77;;;28.40;54.40;;;;;;6242349;23;20004;-85
2021/06/20 18:18:51;;;;;;;35.42;8.68;;;28.40;54.70;;;;;;6242272;23;20000;-85
2021/06/20 18:21:17;;;;;;;31.08;8.50;;;28.40;54.90;;;;;;6243478;23;20004;-84
2021/06/20 18:23:43;;;;;;;32.08;8.10;;;28.30;54.90;;;;;;6268173;22;20380;-85
2021/06/20 18:26:09;;;;;;;33.45;8.68;;;28.30;55.00;;;;;;6243167;23;20036;-85
2021/06/20 18:28:37;;;;;;;32.38;8.23;;;28.30;55.30;;;;;;6241758;23;20004;-85
2021/06/20 18:31:11;;;;;;;24.20;8.55;;;28.20;55.50;;;;;;6251096;22;19996;-85
2021/06/20 18:33:36;;;;;;;29.02;8.55;;;28.20;55.80;;;;;;6234325;23;20050;-85
2021/06/20 18:36:03;;;;;;;38.17;10.05;;;28.10;56.00;;;;;;6261734;23;20004;-84
2021/06/20 18:38:29;;;;;;;38.25;8.77;;;28.10;56.20;;;;;;6262729;23;20453;-85
2021/06/20 18:40:55;;;;;;;28.90;7.90;;;28.00;56.30;;;;;;6249806;23;20000;-85
2021/06/20 18:43:22;;;;;;;29.90;9.35;;;28.00;56.40;;;;;;6245715;23;20001;-85
2021/06/20 18:45:50;;;;;;;26.77;10.38;;;28.00;56.60;;;;;;6245231;23;20059;-85
2021/06/20 18:48:17;;;;;;;29.42;9.00;;;27.90;56.60;;;;;;6244466;23;20004;-84
2021/06/20 18:50:44;;;;;;;28.05;8.52;;;28.00;56.70;;;;;;6243367;23;20004;-84
2021/06/20 18:53:09;;;;;;;22.90;8.48;;;27.90;56.80;;;;;;6242898;23;20004;-85
2021/06/20 18:55:38;;;;;;;37.53;9.30;;;27.90;57.00;;;;;;6242695;23;20394;-85
2021/06/20 18:58:04;;;;;;;27.73;8.68;;;27.80;57.30;;;;;;6242283;23;20008;-85
2021/06/20 19:00:30;;;;;;;29.85;8.57;;;27.80;57.50;;;;;;6241410;23;20517;-84
2021/06/20 19:02:56;;;;;;;29.63;9.45;;;27.80;57.80;;;;;;6241583;23;20339;-84
2021/06/20 19:05:22;;;;;;;27.35;7.97;;;27.80;57.90;;;;;;6241820;23;20011;-84
2021/06/20 19:07:51;;;;;;;23.20;8.25;;;27.80;57.70;;;;;;6244090;23;20410;-85
2021/06/20 19:10:20;;;;;;;25.00;8.65;;;27.60;57.90;;;;;;6245548;23;20380;-85
2021/06/20 19:12:49;;;;;;;20.33;7.18;;;27.70;58.40;;;;;;6246834;22;20004;-84
2021/06/20 19:15:17;;;;;;;19.08;8.18;;;27.60;58.50;;;;;;6243628;23;20381;-85
2021/06/20 19:17:44;;;;;;;28.13;8.07;;;27.60;58.60;;;;;;6247153;23;20011;-85
2021/06/20 19:20:11;;;;;;;26.55;8.13;;;27.50;58.70;;;;;;6269839;22;20449;-85
2021/06/20 19:22:40;;;;;;;28.20;8.80;;;27.50;58.90;;;;;;6243904;23;20445;-85
2021/06/20 19:25:07;;;;;;;28.15;8.45;;;27.40;59.00;;;;;;6242989;23;20035;-85
2021/06/20 19:27:34;;;;;;;26.95;8.07;;;27.40;59.10;;;;;;6243210;23;20008;-85
2021/06/20 19:30:03;;;;;;;24.88;8.30;;;27.30;59.00;;;;;;6243980;23;20086;-85
2021/06/20 19:32:29;;;;;;;26.90;9.27;;;27.30;59.00;;;;;;6242952;23;20091;-85
2021/06/20 19:35:13;;;;;;;27.55;8.70;;;27.30;59.00;;;;;;6245857;23;20499;-85
2021/06/20 19:37:40;;;;;;;35.97;10.18;;;27.20;59.10;;;;;;6239380;23;20022;-85
2021/06/20 19:40:07;;;;;;;28.20;9.93;;;27.10;59.30;;;;;;6243369;23;20011;-85
2021/06/20 19:42:34;;;;;;;31.95;9.90;;;27.10;59.30;;;;;;6245429;22;20474;-85
2021/06/20 19:44:59;;;;;;;25.58;7.50;;;27.10;59.30;;;;;;6241898;23;20515;-85
2021/06/20 19:47:26;;;;;;;24.20;8.15;;;27.10;59.00;;;;;;6242533;23;20008;-85
2021/06/20 19:49:51;;;;;;;29.60;9.88;;;27.10;58.90;;;;;;6245599;22;20466;-85
2021/06/20 19:52:17;;;;;;;30.17;7.70;;;27.00;59.10;;;;;;6243319;23;20008;-85
2021/06/20 19:55:05;;;;;;;27.73;8.73;;;26.90;59.30;;;;;;6243220;23;20752;-85
2021/06/20 19:57:49;;;;;;;25.67;8.55;;;26.90;59.40;;;;;;6243245;23;20004;-85
2021/06/20 20:00:19;;;;;;;26.00;8.02;;;26.90;59.30;;;;;;6242228;23;20024;-85
2021/06/20 20:02:59;;;;;;;20.52;7.60;;;26.80;59.20;;;;;;6243353;22;20004;-85
2021/06/20 20:05:41;;;;;;;18.92;7.13;;;26.80;59.10;;;;;;6244701;22;20000;-85
2021/06/20 20:08:12;;;;;;;26.83;8.07;;;26.80;58.90;;;;;;6243601;23;20086;-85
2021/06/20 20:11:08;;;;;;;32.08;9.05;;;26.80;59.10;;;;;;6250635;23;20007;-85
2021/06/20 20:13:42;;;;;;;31.35;9.07;;;26.50;59.50;;;;;;6248457;23;20008;-85
2021/06/20 20:16:10;;;;;;;29.25;8.15;;;26.60;60.10;;;;;;6241972;23;20368;-85
2021/06/20 20:18:40;;;;;;;33.67;11.07;;;26.60;59.60;;;;;;6243018;23;20066;-84
2021/06/20 20:21:12;;;;;;;41.58;12.07;;;26.60;59.60;;;;;;6246414;22;20062;-85
2021/06/20 20:23:45;;;;;;;35.57;9.30;;;26.40;59.70;;;;;;6243749;23;20072;-84
2021/06/20 20:26:53;;;;;;;34.17;9.57;;;26.50;59.70;;;;;;6243458;23;20011;-84
2021/06/20 20:29:19;;;;;;;26.40;9.73;;;26.60;59.70;;;;;;6266514;22;20011;-84
2021/06/20 20:31:52;;;;;;;28.98;9.68;;;26.60;59.70;;;;;;6243105;23;20008;-84
2021/06/20 20:34:21;;;;;;;31.45;10.50;;;26.60;59.70;;;;;;6244126;23;20039;-85
2021/06/20 20:36:49;;;;;;;32.60;9.50;;;26.60;59.70;;;;;;6243696;23;20012;-84
2021/06/20 20:39:18;;;;;;;28.30;9.35;;;26.50;59.80;;;;;;6243758;23;20373;-84
2021/06/20 20:41:54;;;;;;;25.63;9.20;;;26.40;59.90;;;;;;6242446;23;20476;-84
2021/06/20 20:44:57;;;;;;;33.00;10.02;;;26.40;60.10;;;;;;6244134;23;20004;-84
2021/06/20 20:47:25;;;;;;;27.33;8.93;;;26.30;60.00;;;;;;6242389;22;20387;-84
2021/06/20 20:49:54;;;;;;;29.85;9.02;;;26.40;60.20;;;;;;6245718;23;20327;-84
2021/06/20 20:52:23;;;;;;;27.30;9.55;;;26.20;60.30;;;;;;6245246;23;20000;-84
2021/06/20 20:54:58;;;;;;;31.88;9.30;;;26.20;60.60;;;;;;6242290;23;20027;-83
2021/06/20 20:57:28;;;;;;;25.58;9.18;;;26.10;60.60;;;;;;6242525;23;19996;-83
2021/06/20 20:59:59;;;;;;;31.45;9.48;;;26.10;60.60;;;;;;6246960;22;20008;-84
2021/06/20 21:02:36;;;;;;;25.02;8.38;;;26.00;60.60;;;;;;6248459;22;20004;-84
2021/06/20 21:05:07;;;;;;;20.00;7.65;;;26.10;60.70;;;;;;6249194;22;20008;-84
2021/06/20 21:07:41;;;;;;;33.35;8.57;;;25.90;60.70;;;;;;6275929;22;20401;-84
2021/06/20 21:10:24;;;;;;;31.25;8.75;;;25.80;61.00;;;;;;6274855;22;20345;-84
2021/06/20 21:13:24;;;;;;;34.17;8.88;;;25.70;61.20;;;;;;6248168;22;20014;-84
2021/06/20 21:15:55;;;;;;;35.60;9.57;;;25.70;61.30;;;;;;6273180;22;20027;-84
2021/06/20 21:18:21;;;;;;;30.92;10.25;;;25.80;61.30;;;;;;6272821;22;20100;-85
2021/06/20 21:20:46;;;;;;;30.60;10.10;;;25.80;61.10;;;;;;6248074;22;20437;-85
2021/06/20 21:23:15;;;;;;;27.92;9.20;;;25.80;61.00;;;;;;6248202;22;20004;-84
2021/06/20 21:25:41;;;;;;;28.58;8.95;;;25.90;60.90;;;;;;6275405;22;20165;-83
2021/06/20 21:28:09;;;;;;;23.10;8.65;;;25.90;61.00;;;;;;6247484;22;20716;-84
2021/06/20 21:30:35;;;;;;;29.48;10.20;;;25.80;61.00;;;;;;6247596;22;20008;-84
2021/06/20 21:33:11;;;;;;;;;;;;;;;;;;;;;
2021/06/20 21:35:43;;;;;;;34.30;9.25;;;25.90;60.60;;;;;;6280024;22;20086;-85
2021/06/20 21:38:14;;;;;;;30.20;9.52;;;25.90;60.60;;;;;;6247952;22;20014;-83
2021/06/20 21:40:40;;;;;;;31.40;10.80;;;25.80;60.70;;;;;;6273663;22;20007;-84
2021/06/20 21:43:11;;;;;;;26.60;9.45;;;25.70;60.80;;;;;;6248245;22;20052;-84
2021/06/20 21:45:54;;;;;;;28.35;9.68;;;25.60;61.20;;;;;;6273297;22;20499;-84
2021/06/20 21:48:22;;;;;;;;;;;25.50;61.40;;;;;;6220702;22;20397;-85
2021/06/20 21:50:53;;;;;;;32.55;10.13;;;25.50;61.40;;;;;;6274267;22;19899;-84
2021/06/20 21:53:22;;;;;;;29.80;9.73;;;25.40;61.50;;;;;;6248371;22;20049;-84
2021/06/20 21:55:48;;;;;;;32.03;10.15;;;25.40;61.70;;;;;;6247624;22;20014;-83
2021/06/20 21:58:14;;;;;;;33.47;10.15;;;25.30;61.90;;;;;;6248724;22;20662;-84
2021/06/20 22:00:45;;;;;;;27.67;10.05;;;25.40;62.10;;;;;;6246528;22;20015;-84
2021/06/20 22:03:11;;;;;;;36.73;10.10;;;25.40;62.30;;;;;;6247191;22;20003;-84
2021/06/20 22:05:37;;;;;;;33.50;10.48;;;25.40;62.40;;;;;;6247525;22;20012;-83
2021/06/20 22:08:03;;;;;;;25.05;11.65;;;25.40;62.60;;;;;;6274725;22;20006;-83
2021/06/20 22:10:29;;;;;;;24.95;10.40;;;25.40;62.80;;;;;;6274869;22;20003;-83
2021/06/20 22:12:55;;;;;;;27.52;9.45;;;25.30;63.00;;;;;;6247894;22;19999;-83
2021/06/20 22:15:23;;;;;;;29.27;10.13;;;25.30;62.80;;;;;;6273118;22;20014;-84
2021/06/20 22:17:52;;;;;;;26.67;8.50;;;25.20;62.80;;;;;;6246990;22;20034;-84
2021/06/20 22:20:30;;;;;;;24.38;8.40;;;25.20;62.60;;;;;;6274421;22;20460;-83
2021/06/20 22:22:57;;;;;;;28.52;8.55;;;25.20;62.30;;;;;;6273023;22;20053;-83
2021/06/20 22:25:26;;;;;;;27.92;7.60;;;25.10;62.70;;;;;;6274310;22;20003;-83
2021/06/20 22:27:53;;;;;;;31.23;8.52;;;25.10;61.90;;;;;;6247632;22;20442;-83
2021/06/20 22:30:21;;;;;;;27.65;8.00;;;25.10;61.60;;;;;;6272984;22;20011;-83
2021/06/20 22:32:50;;;;;;;28.25;8.48;;;25.10;61.10;;;;;;6272751;22;20004;-83
2021/06/20 22:35:20;;;;;;;36.38;8.63;;;25.00;60.80;;;;;;6275048;22;20008;-83
2021/06/20 22:37:46;;;;;;;26.80;8.85;;;25.10;60.60;;;;;;6273076;22;20007;-83
2021/06/20 22:40:16;;;;;;;28.13;8.80;;;25.10;60.30;;;;;;6274347;22;20053;-84
2021/06/20 22:42:43;;;;;;;33.92;8.55;;;25.00;61.00;;;;;;6273329;22;20007;-84
2021/06/20 22:45:19;;;;;;;31.88;8.98;;;25.00;60.90;;;;;;6273004;22;20094;-83
2021/06/20 22:47:47;;;;;;;35.25;8.80;;;24.90;60.40;;;;;;6274848;22;20043;-84
2021/06/20 22:50:19;;;;;;;28.50;9.35;;;24.80;60.80;;;;;;6271997;22;20016;-84
2021/06/20 22:52:46;;;;;;;31.02;8.95;;;24.70;61.10;;;;;;6247568;22;20342;-84
2021/06/20 22:55:20;;;;;;;36.88;11.20;;;24.70;61.20;;;;;;6274133;22;20015;-83
2021/06/20 22:57:53;;;;;;;31.98;9.27;;;24.70;61.50;;;;;;6247115;22;20006;-83
2021/06/20 23:00:50;;;;;;;32.28;9.00;;;24.70;61.70;;;;;;6272122;22;20102;-83
2021/06/20 23:03:39;;;;;;;30.40;8.90;;;24.70;61.90;;;;;;6273470;22;20071;-83
2021/06/20 23:06:08;;;;;;;29.90;10.02;;;24.60;61.50;;;;;;6272411;22;20019;-84
2021/06/20 23:08:34;;;;;;;26.17;9.93;;;24.40;61.70;;;;;;6246980;22;20674;-84
2021/06/20 23:11:00;;;;;;;30.17;7.95;;;24.30;61.90;;;;;;6246607;22;20008;-84
2021/06/20 23:13:25;;;;;;;28.52;7.65;;;24.20;61.80;;;;;;6272124;22;20008;-83
2021/06/20 23:15:51;;;;;;;31.33;7.97;;;24.10;61.80;;;;;;6273748;22;20577;-83
2021/06/20 23:18:18;;;;;;;24.10;7.53;;;24.00;61.90;;;;;;6247111;22;20008;-83
2021/06/20 23:20:44;;;;;;;31.10;8.57;;;24.00;61.80;;;;;;6246641;22;20418;-83
2021/06/20 23:23:12;;;;;;;33.47;8.98;;;24.00;61.50;;;;;;6273222;22;20003;-83
2021/06/20 23:25:38;;;;;;;34.70;8.80;;;23.90;61.60;;;;;;6249107;22;20461;-83
2021/06/20 23:28:20;;;;;;;28.55;8.38;;;24.00;61.50;;;;;;6275599;22;20354;-83
2021/06/20 23:30:50;;;;;;;38.03;9.25;;;24.00;61.60;;;;;;6264954;22;20008;-83
2021/06/20 23:33:25;;;;;;;37.83;9.00;;;24.00;61.50;;;;;;6298420;22;20018;-85
2021/06/20 23:35:51;;;;;;;28.20;8.95;;;24.00;61.70;;;;;;6296753;22;20124;-84
2021/06/20 23:38:19;;;;;;;33.30;9.52;;;24.00;61.70;;;;;;6249997;22;20312;-84
2021/06/20 23:40:46;;;;;;;29.15;9.95;;;24.10;62.00;;;;;;6248475;22;20429;-84
2021/06/20 23:43:32;;;;;;;30.67;10.02;;;24.20;62.30;;;;;;6274393;22;20061;-84
2021/06/20 23:46:02;;;;;;;33.17;9.55;;;24.20;62.50;;;;;;6273400;22;20053;-84
2021/06/20 23:48:36;;;;;;;24.30;8.88;;;24.10;62.90;;;;;;6247488;22;19996;-84
2021/06/20 23:51:07;;;;;;;29.10;9.90;;;24.20;63.10;;;;;;6248039;22;20003;-83
2021/06/20 23:53:40;;;;;;;27.10;10.02;;;24.20;63.30;;;;;;6274419;22;20004;-84
2021/06/20 23:56:07;;;;;;;26.88;9.50;;;24.20;63.50;;;;;;6247909;22;20004;-84
2021/06/20 23:58:40;;;;;;;37.38;8.95;;;24.00;63.60;;;;;;6249382;22;20010;-84
